createdAt,value
2023-05-09T00:01:13.532Z,102281.81
2023-05-09T00:03:42.818Z,102276.78
2023-05-09T00:06:11.740Z,102280.97
2023-05-09T00:08:38.418Z,102287.94
2023-05-09T00:11:05.385Z,102285.66
2023-05-09T00:13:31.987Z,102287.28
2023-05-09T00:15:58.974Z,102287.72
2023-05-09T00:18:25.655Z,102287.78
2023-05-09T00:20:52.324Z,102284.56
2023-05-09T00:23:18.989Z,102274.00
2023-05-09T00:25:45.726Z,102267.94
2023-05-09T00:28:12.360Z,102266.28
2023-05-09T00:30:39.107Z,102266.78
2023-05-09T00:33:06.311Z,102266.50
2023-05-09T00:35:33.068Z,102263.94
2023-05-09T00:37:59.736Z,102264.56
2023-05-09T00:40:26.462Z,102261.13
2023-05-09T00:42:53.304Z,102260.16
2023-05-09T00:45:19.943Z,102241.22
2023-05-09T00:47:46.679Z,102242.25
2023-05-09T00:50:13.914Z,102249.53
2023-05-09T00:52:41.595Z,102238.66
2023-05-09T00:55:09.275Z,102236.09
2023-05-09T00:57:36.609Z,102237.06
2023-05-09T01:00:04.601Z,102235.94
2023-05-09T01:02:32.318Z,102240.25
2023-05-09T01:04:59.256Z,102233.16
2023-05-09T01:07:35.151Z,102232.59
2023-05-09T01:10:16.117Z,102227.16
2023-05-09T01:12:45.702Z,102231.25
2023-05-09T01:15:32.789Z,102231.16
2023-05-09T01:18:56.941Z,102222.84
2023-05-09T01:21:29.358Z,102224.03
2023-05-09T01:24:15.811Z,102217.25
2023-05-09T01:27:27.047Z,102214.78
2023-05-09T01:30:02.712Z,102221.47
2023-05-09T01:32:32.107Z,102211.88
2023-05-09T01:35:02.816Z,102199.31
2023-05-09T01:37:33.002Z,102201.16
2023-05-09T01:40:10.446Z,102200.59
2023-05-09T01:42:49.969Z,102196.63
2023-05-09T01:45:20.643Z,102201.00
2023-05-09T01:47:49.780Z,102198.38
2023-05-09T01:50:18.769Z,102193.81
2023-05-09T01:52:48.510Z,102190.72
2023-05-09T01:55:16.826Z,102186.56
2023-05-09T01:57:45.026Z,102178.88
2023-05-09T02:00:13.766Z,102195.56
2023-05-09T02:02:41.550Z,102192.16
2023-05-09T02:05:10.778Z,102201.91
2023-05-09T02:07:38.823Z,102187.03
2023-05-09T02:10:07.733Z,102187.09
2023-05-09T02:12:34.534Z,102198.94
2023-05-09T02:15:01.470Z,102197.81
2023-05-09T02:17:30.827Z,102199.13
2023-05-09T02:19:57.695Z,102199.94
2023-05-09T02:22:24.936Z,102200.91
2023-05-09T02:24:51.823Z,102198.19
2023-05-09T02:27:20.075Z,102197.78
2023-05-09T02:29:51.576Z,102189.16
2023-05-09T02:32:24.458Z,102189.34
2023-05-09T02:34:55.754Z,102200.44
2023-05-09T02:37:23.586Z,102194.28
2023-05-09T02:39:50.424Z,102191.22
2023-05-09T02:42:21.611Z,102194.19
2023-05-09T02:44:48.565Z,102185.41
2023-05-09T02:47:15.303Z,102181.38
2023-05-09T02:49:41.959Z,102173.53
2023-05-09T02:52:09.044Z,102179.56
2023-05-09T02:54:35.723Z,102178.66
2023-05-09T02:57:06.573Z,102169.06
2023-05-09T02:59:33.431Z,102165.66
2023-05-09T03:02:01.720Z,102159.16
2023-05-09T03:04:30.883Z,102155.84
2023-05-09T03:06:57.613Z,102146.44
2023-05-09T03:09:24.256Z,102142.56
2023-05-09T03:11:50.964Z,102141.88
2023-05-09T03:14:18.355Z,102141.41
2023-05-09T03:16:45.123Z,102141.41
2023-05-09T03:19:14.008Z,102139.44
2023-05-09T03:21:41.601Z,102128.91
2023-05-09T03:24:10.647Z,102127.56
2023-05-09T03:26:37.380Z,102129.47
2023-05-09T03:29:04.470Z,102127.34
2023-05-09T03:31:31.207Z,102122.06
2023-05-09T03:33:58.297Z,102118.44
2023-05-09T03:36:25.598Z,102116.13
2023-05-09T03:38:52.285Z,102112.69
2023-05-09T03:41:19.069Z,102109.00
2023-05-09T03:43:45.974Z,102104.91
2023-05-09T03:46:12.793Z,102109.97
2023-05-09T03:48:39.512Z,102112.63
2023-05-09T03:51:06.429Z,102110.59
2023-05-09T03:53:33.176Z,102109.81
2023-05-09T03:56:02.290Z,102107.03
2023-05-09T03:58:28.931Z,102098.00
2023-05-09T04:00:56.051Z,102105.13
2023-05-09T04:03:23.026Z,102098.16
2023-05-09T04:05:51.063Z,102100.50
2023-05-09T04:08:17.797Z,102102.16
2023-05-09T04:10:44.698Z,102097.78
2023-05-09T04:13:11.656Z,102088.75
2023-05-09T04:15:38.457Z,102098.28
2023-05-09T04:18:05.656Z,102097.78
2023-05-09T04:20:32.378Z,102090.03
2023-05-09T04:22:59.126Z,102085.50
2023-05-09T04:25:26.167Z,102091.78
2023-05-09T04:27:53.003Z,102083.25
2023-05-09T04:30:20.967Z,102097.47
2023-05-09T04:32:49.051Z,102096.03
2023-05-09T04:35:17.495Z,102096.44
2023-05-09T04:37:47.032Z,102085.81
2023-05-09T04:40:14.736Z,102084.72
2023-05-09T04:42:42.303Z,102070.50
2023-05-09T04:45:11.739Z,102065.22
2023-05-09T04:47:38.786Z,102075.84
2023-05-09T04:50:06.034Z,102080.97
2023-05-09T04:52:32.707Z,102072.03
2023-05-09T04:54:59.332Z,102072.88
2023-05-09T04:57:25.992Z,102071.88
2023-05-09T04:59:53.010Z,102075.91
2023-05-09T05:02:21.222Z,102073.03
2023-05-09T05:04:48.160Z,102070.31
2023-05-09T05:07:14.921Z,102064.31
2023-05-09T05:09:41.601Z,102061.66
2023-05-09T05:12:09.818Z,102055.13
2023-05-09T05:14:36.988Z,102059.13
2023-05-09T05:17:03.819Z,102045.19
2023-05-09T05:19:30.581Z,102059.47
2023-05-09T05:21:57.242Z,102054.44
2023-05-09T05:24:23.981Z,102046.00
2023-05-09T05:26:50.701Z,102046.16
2023-05-09T05:29:17.903Z,102041.44
2023-05-09T05:31:44.639Z,102047.06
2023-05-09T05:34:11.472Z,102032.66
2023-05-09T05:36:38.154Z,102029.16
2023-05-09T05:39:04.853Z,102019.06
2023-05-09T05:41:31.572Z,102020.91
2023-05-09T05:43:58.235Z,102003.34
2023-05-09T05:46:24.917Z,102003.09
2023-05-09T05:48:51.628Z,101990.69
2023-05-09T05:51:18.403Z,101993.06
2023-05-09T05:53:45.463Z,101984.53
2023-05-09T05:56:12.140Z,101991.34
2023-05-09T05:58:38.906Z,101985.72
2023-05-09T06:01:05.620Z,101989.31
2023-05-09T06:03:32.526Z,101982.22
2023-05-09T06:05:59.419Z,101986.69
2023-05-09T06:08:26.084Z,101977.78
2023-05-09T06:10:52.733Z,101970.56
2023-05-09T06:13:19.489Z,101969.78
2023-05-09T06:15:46.214Z,101969.91
2023-05-09T06:18:12.983Z,101957.34
2023-05-09T06:20:39.972Z,101946.09
2023-05-09T06:23:06.680Z,101943.94
2023-05-09T06:25:34.494Z,101907.38
2023-05-09T06:28:01.192Z,101872.66
2023-05-09T06:30:27.898Z,101851.72
2023-05-09T06:32:55.351Z,101822.97
2023-05-09T06:35:22.334Z,101826.44
2023-05-09T06:37:49.514Z,101822.97
2023-05-09T06:40:17.333Z,101803.66
2023-05-09T06:42:44.829Z,101795.28
2023-05-09T06:45:11.942Z,101816.25
2023-05-09T06:47:38.692Z,101803.88
2023-05-09T06:50:05.943Z,101818.66
2023-05-09T06:52:32.605Z,101806.41
2023-05-09T06:54:59.279Z,101804.88
2023-05-09T06:57:26.064Z,101820.13
2023-05-09T06:59:52.958Z,101791.41
2023-05-09T07:02:21.818Z,101785.47
2023-05-09T07:04:48.653Z,101803.75
2023-05-09T07:07:16.279Z,101804.56
2023-05-09T07:09:43.014Z,101818.19
2023-05-09T07:12:09.641Z,101839.91
2023-05-09T07:14:36.458Z,101822.38
2023-05-09T07:17:21.236Z,101850.69
2023-05-09T07:19:50.130Z,101878.13
2023-05-09T07:22:16.987Z,101893.50
2023-05-09T07:24:46.595Z,101891.81
2023-05-09T07:27:13.329Z,101892.94
2023-05-09T07:29:40.064Z,101896.53
2023-05-09T07:32:06.905Z,101889.66
2023-05-09T07:34:33.728Z,101884.44
2023-05-09T07:37:00.468Z,101877.09
2023-05-09T07:39:27.116Z,101847.09
2023-05-09T07:41:53.750Z,101860.09
2023-05-09T07:44:20.625Z,101854.47
2023-05-09T07:46:47.273Z,101832.66
2023-05-09T07:49:13.922Z,101840.06
2023-05-09T07:51:41.414Z,101828.31
2023-05-09T07:54:10.034Z,101827.69
2023-05-09T07:56:37.056Z,101822.81
2023-05-09T07:59:03.812Z,101836.00
2023-05-09T08:01:30.692Z,101819.06
2023-05-09T08:03:57.462Z,101809.50
2023-05-09T08:06:24.494Z,101802.50
2023-05-09T08:08:51.185Z,101788.66
2023-05-09T08:11:18.018Z,101804.34
2023-05-09T08:13:44.685Z,101803.84
2023-05-09T08:16:11.419Z,101789.78
2023-05-09T08:18:38.234Z,101783.63
2023-05-09T08:21:05.443Z,101784.66
2023-05-09T08:23:32.242Z,101795.97
2023-05-09T08:25:59.257Z,101784.81
2023-05-09T08:28:28.863Z,101763.25
2023-05-09T08:30:56.881Z,101760.69
2023-05-09T08:33:23.963Z,101760.25
2023-05-09T08:35:54.143Z,101755.22
2023-05-09T08:38:20.978Z,101738.19
2023-05-09T08:40:48.177Z,101733.50
2023-05-09T08:43:18.211Z,101745.19
2023-05-09T08:45:52.363Z,101744.03
2023-05-09T08:48:19.436Z,101760.91
2023-05-09T08:50:46.356Z,101732.19
2023-05-09T08:53:24.748Z,101726.13
2023-05-09T08:55:52.937Z,101734.91
2023-05-09T08:58:22.657Z,101728.19
2023-05-09T09:00:50.597Z,101708.94
2023-05-09T09:03:18.276Z,101714.44
2023-05-09T09:05:48.162Z,101726.69
2023-05-09T09:08:15.425Z,101730.84
2023-05-09T09:10:47.007Z,101723.22
2023-05-09T09:13:17.992Z,101704.25
2023-05-09T09:15:46.970Z,101725.28
2023-05-09T09:18:20.922Z,101697.75
2023-05-09T09:20:57.573Z,101700.75
2023-05-09T09:23:26.724Z,101702.81
2023-05-09T09:26:06.452Z,101696.28
2023-05-09T09:28:33.741Z,101710.94
2023-05-09T09:31:01.302Z,101704.56
2023-05-09T09:33:29.566Z,101688.75
2023-05-09T09:35:57.207Z,101707.00
2023-05-09T09:38:25.054Z,101700.63
2023-05-09T09:40:51.700Z,101671.47
2023-05-09T09:43:19.502Z,101677.56
2023-05-09T09:45:50.649Z,101680.72
2023-05-09T09:48:17.447Z,101672.47
2023-05-09T09:50:44.143Z,101660.53
2023-05-09T09:53:10.866Z,101661.09
2023-05-09T09:55:49.055Z,101653.88
2023-05-09T09:58:21.946Z,101631.88
2023-05-09T10:01:07.906Z,101653.16
2023-05-09T10:03:42.739Z,101638.94
2023-05-09T10:06:10.987Z,101652.59
2023-05-09T10:08:37.838Z,101637.06
2023-05-09T10:11:04.629Z,101652.75
2023-05-09T10:13:34.083Z,101629.06
2023-05-09T10:16:01.759Z,101623.72
2023-05-09T10:18:31.045Z,101607.81
2023-05-09T10:21:03.802Z,101600.09
2023-05-09T10:23:31.917Z,101592.53
2023-05-09T10:26:03.605Z,101600.53
2023-05-09T10:28:33.235Z,101598.66
2023-05-09T10:31:13.061Z,101593.66
2023-05-09T10:33:46.129Z,101592.88
2023-05-09T10:36:15.445Z,101560.88
2023-05-09T10:38:42.813Z,101570.06
2023-05-09T10:41:11.180Z,101568.72
2023-05-09T10:43:38.112Z,101568.47
2023-05-09T10:46:05.645Z,101573.16
2023-05-09T10:48:36.531Z,101568.25
2023-05-09T10:51:04.643Z,101557.41
2023-05-09T10:53:43.662Z,101546.47
2023-05-09T10:56:23.113Z,101537.09
2023-05-09T10:58:50.409Z,101532.25
2023-05-09T11:01:30.788Z,101506.69
2023-05-09T11:03:59.936Z,101523.72
2023-05-09T11:06:42.669Z,101513.25
2023-05-09T11:09:39.043Z,101521.69
2023-05-09T11:12:05.893Z,101504.03
2023-05-09T11:14:41.440Z,101497.81
2023-05-09T11:17:10.676Z,101511.25
2023-05-09T11:19:47.368Z,101517.88
2023-05-09T11:22:21.461Z,101484.09
2023-05-09T11:24:50.143Z,101474.09
2023-05-09T11:27:23.686Z,101480.81
2023-05-09T11:29:52.571Z,101474.31
2023-05-09T11:32:30.855Z,101501.81
2023-05-09T11:35:26.384Z,101501.78
2023-05-09T11:38:00.527Z,101488.84
2023-05-09T11:40:28.422Z,101436.38
2023-05-09T11:42:58.267Z,101460.81
2023-05-09T11:45:28.448Z,101457.19
2023-05-09T11:47:57.109Z,101436.22
2023-05-09T11:50:24.741Z,101445.38
2023-05-09T11:52:51.638Z,101461.03
2023-05-09T11:55:24.962Z,101426.47
2023-05-09T11:57:53.903Z,101417.47
2023-05-09T12:00:22.694Z,101453.34
2023-05-09T12:02:51.046Z,101425.41
2023-05-09T12:05:20.404Z,101423.59
2023-05-09T12:07:48.158Z,101412.91
2023-05-09T12:10:20.779Z,101414.34
2023-05-09T12:12:50.027Z,101438.84
2023-05-09T12:15:17.793Z,101427.84
2023-05-09T12:17:46.995Z,101391.63
2023-05-09T12:20:14.443Z,101397.69
2023-05-09T12:22:43.923Z,101418.13
2023-05-09T12:25:12.185Z,101421.78
2023-05-09T12:27:40.048Z,101411.34
2023-05-09T12:30:12.054Z,101421.78
2023-05-09T12:32:40.335Z,101376.41
2023-05-09T12:35:09.628Z,101382.22
2023-05-09T12:37:36.517Z,101364.91
2023-05-09T12:40:13.161Z,101351.09
2023-05-09T12:42:43.770Z,101325.31
2023-05-09T12:45:11.440Z,101364.75
2023-05-09T12:47:45.719Z,101350.56
2023-05-09T12:50:13.272Z,101358.88
2023-05-09T12:53:02.102Z,101366.53
2023-05-09T12:55:31.640Z,101376.97
2023-05-09T12:58:03.437Z,101367.03
2023-05-09T13:00:46.661Z,101349.81
2023-05-09T13:03:37.805Z,101317.91
2023-05-09T13:06:06.584Z,101286.22
2023-05-09T13:08:33.427Z,101317.75
2023-05-09T13:11:11.989Z,101316.03
2023-05-09T13:13:42.533Z,101323.19
2023-05-09T13:16:10.980Z,101334.66
2023-05-09T13:18:38.766Z,101300.03
2023-05-09T13:21:05.644Z,101314.59
2023-05-09T13:23:32.443Z,101308.56
2023-05-09T13:25:59.110Z,101346.09
2023-05-09T13:28:25.891Z,101317.38
2023-05-09T13:30:52.743Z,101324.66
2023-05-09T13:33:25.892Z,101314.25
2023-05-09T13:35:53.904Z,101309.72
2023-05-09T13:38:20.860Z,101327.25
2023-05-09T13:40:47.605Z,101288.75
2023-05-09T13:43:14.255Z,101297.50
2023-05-09T13:45:41.015Z,101276.91
2023-05-09T13:48:08.025Z,101280.38
2023-05-09T13:50:34.814Z,101294.88
2023-05-09T13:53:01.950Z,101322.78
2023-05-09T13:55:29.691Z,101316.41
2023-05-09T13:57:56.486Z,101268.63
2023-05-09T14:00:26.633Z,101274.72
2023-05-09T14:02:53.548Z,101295.78
2023-05-09T14:05:20.236Z,101257.34
2023-05-09T14:07:47.491Z,101245.09
2023-05-09T14:10:14.173Z,101268.06
2023-05-09T14:12:40.969Z,101259.19
2023-05-09T14:15:08.542Z,101259.00
2023-05-09T14:17:37.918Z,101258.34
2023-05-09T14:20:05.022Z,101289.56
2023-05-09T14:22:31.686Z,101251.00
2023-05-09T14:24:58.690Z,101271.72
2023-05-09T14:27:27.682Z,101286.81
2023-05-09T14:29:54.448Z,101286.81
2023-05-09T14:32:21.247Z,101255.84
2023-05-09T14:34:52.514Z,101253.09
2023-05-09T14:37:19.143Z,101268.00
2023-05-09T14:39:46.806Z,101246.50
2023-05-09T14:42:14.253Z,101252.72
2023-05-09T14:44:41.869Z,101269.16
2023-05-09T14:47:10.060Z,101293.38
2023-05-09T14:49:37.309Z,101271.94
2023-05-09T14:52:06.012Z,101273.13
2023-05-09T14:54:32.821Z,101245.47
2023-05-09T14:57:02.049Z,101227.16
2023-05-09T14:59:29.544Z,101239.09
2023-05-09T15:01:56.443Z,101223.34
2023-05-09T15:04:25.470Z,101229.22
2023-05-09T15:06:52.263Z,101234.75
2023-05-09T15:09:19.327Z,101230.53
2023-05-09T15:11:48.801Z,101207.38
2023-05-09T15:14:16.687Z,101195.31
2023-05-09T15:16:43.711Z,101207.44
2023-05-09T15:19:10.487Z,101197.97
2023-05-09T15:21:37.166Z,101180.81
2023-05-09T15:24:05.168Z,101193.81
2023-05-09T15:26:32.290Z,101188.78
2023-05-09T15:28:59.145Z,101170.47
2023-05-09T15:31:26.062Z,101170.81
2023-05-09T15:33:52.872Z,101139.66
2023-05-09T15:36:19.625Z,101165.03
2023-05-09T15:38:49.464Z,101129.38
2023-05-09T15:41:16.820Z,101160.66
2023-05-09T15:43:43.821Z,101135.13
2023-05-09T15:46:10.666Z,101132.91
2023-05-09T15:48:37.367Z,101134.44
2023-05-09T15:51:04.294Z,101130.81
2023-05-09T15:53:31.281Z,101134.63
2023-05-09T15:55:58.073Z,101135.47
2023-05-09T15:58:24.969Z,101137.34
2023-05-09T16:00:51.770Z,101101.63
2023-05-09T16:03:18.986Z,101103.19
2023-05-09T16:05:45.771Z,101088.16
2023-05-09T16:08:12.654Z,101090.19
2023-05-09T16:10:39.640Z,101106.09
2023-05-09T16:13:07.302Z,101101.25
2023-05-09T16:15:34.085Z,101088.47
2023-05-09T16:18:00.841Z,101080.88
2023-05-09T16:20:27.899Z,101085.03
2023-05-09T16:22:54.572Z,101086.16
2023-05-09T16:25:21.545Z,101091.41
2023-05-09T16:27:48.258Z,101085.00
2023-05-09T16:30:16.267Z,101071.13
2023-05-09T16:32:43.326Z,101110.06
2023-05-09T16:35:10.408Z,101087.72
2023-05-09T16:37:37.430Z,101073.22
2023-05-09T16:40:04.647Z,101051.97
2023-05-09T16:42:31.364Z,101027.19
2023-05-09T16:44:58.081Z,101052.44
2023-05-09T16:47:25.706Z,101036.31
2023-05-09T16:49:52.361Z,101039.94
2023-05-09T16:52:19.104Z,101043.56
2023-05-09T16:54:45.809Z,101036.16
2023-05-09T16:57:16.475Z,101042.53
2023-05-09T16:59:43.202Z,101037.31
2023-05-09T17:02:09.885Z,101038.84
2023-05-09T17:04:37.786Z,101037.09
2023-05-09T17:07:04.881Z,101045.38
2023-05-09T17:09:32.175Z,101046.69
2023-05-09T17:11:59.103Z,101019.56
2023-05-09T17:14:26.917Z,101016.91
2023-05-09T17:16:56.997Z,101014.16
2023-05-09T17:19:25.767Z,101021.03
2023-05-09T17:21:52.574Z,101024.25
2023-05-09T17:24:30.177Z,101009.31
2023-05-09T17:26:56.887Z,101012.00
2023-05-09T17:29:23.582Z,100999.13
2023-05-09T17:31:50.304Z,101009.34
2023-05-09T17:34:16.968Z,100999.44
2023-05-09T17:36:43.694Z,100996.31
2023-05-09T17:39:12.955Z,101003.72
2023-05-09T17:41:39.787Z,100984.06
2023-05-09T17:44:06.448Z,100984.41
2023-05-09T17:46:33.136Z,100989.34
2023-05-09T17:48:59.822Z,100994.69
2023-05-09T17:51:27.016Z,101011.91
2023-05-09T17:53:53.788Z,101013.78
2023-05-09T17:56:21.276Z,101021.84
2023-05-09T17:58:52.881Z,101008.38
2023-05-09T18:01:20.636Z,101003.59
2023-05-09T18:03:47.537Z,101003.19
2023-05-09T18:06:14.547Z,101013.03
2023-05-09T18:08:41.443Z,101020.19
2023-05-09T18:11:08.157Z,101022.72
2023-05-09T18:13:35.064Z,101044.00
2023-05-09T18:16:02.810Z,101054.59
2023-05-09T18:18:31.012Z,101062.38
2023-05-09T18:20:58.563Z,101073.03
2023-05-09T18:23:26.105Z,101090.59
2023-05-09T18:25:54.030Z,101085.19
2023-05-09T18:28:27.612Z,101087.22
2023-05-09T18:30:56.729Z,101101.25
2023-05-09T18:33:24.703Z,101108.78
2023-05-09T18:35:53.173Z,101122.00
2023-05-09T18:38:19.947Z,101116.41
2023-05-09T18:40:48.669Z,101130.56
2023-05-09T18:43:16.959Z,101121.19
2023-05-09T18:45:45.078Z,101130.00
2023-05-09T18:48:12.327Z,101130.16
2023-05-09T18:50:39.293Z,101133.94
2023-05-09T18:53:06.030Z,101136.56
2023-05-09T18:55:32.743Z,101132.22
2023-05-09T18:57:59.537Z,101131.53
2023-05-09T19:00:26.330Z,101126.31
2023-05-09T19:02:53.161Z,101123.28
2023-05-09T19:05:20.567Z,101122.97
2023-05-09T19:07:47.358Z,101122.97
2023-05-09T19:10:17.947Z,101125.41
2023-05-09T19:12:46.103Z,101128.88
2023-05-09T19:15:12.915Z,101130.03
2023-05-09T19:17:39.658Z,101128.44
2023-05-09T19:20:07.102Z,101127.13
2023-05-09T19:22:35.034Z,101122.47
2023-05-09T19:25:01.795Z,101123.34
2023-05-09T19:27:28.480Z,101124.50
2023-05-09T19:29:55.165Z,101120.88
2023-05-09T19:32:22.173Z,101112.53
2023-05-09T19:34:48.832Z,101117.97
2023-05-09T19:37:15.470Z,101123.03
2023-05-09T19:39:42.161Z,101127.94
2023-05-09T19:42:08.871Z,101126.06
2023-05-09T19:44:35.644Z,101128.78
2023-05-09T19:47:05.128Z,101130.78
2023-05-09T19:49:32.703Z,101129.63
2023-05-09T19:51:59.377Z,101129.78
2023-05-09T19:54:27.736Z,101121.13
2023-05-09T19:56:54.437Z,101123.75
2023-05-09T19:59:21.192Z,101125.56
2023-05-09T20:01:47.952Z,101122.69
2023-05-09T20:04:14.598Z,101127.75
2023-05-09T20:06:41.387Z,101119.78
2023-05-09T20:09:08.108Z,101114.88
2023-05-09T20:11:34.747Z,101120.53
2023-05-09T20:14:01.352Z,101110.84
2023-05-09T20:16:28.534Z,101115.31
2023-05-09T20:18:55.651Z,101118.91
2023-05-09T20:21:22.427Z,101124.22
2023-05-09T20:23:49.192Z,101107.84
2023-05-09T20:26:17.330Z,101109.56
2023-05-09T20:28:47.915Z,101107.00
2023-05-09T20:31:14.606Z,101111.03
2023-05-09T20:33:41.338Z,101102.09
2023-05-09T20:36:09.498Z,101101.06
2023-05-09T20:38:36.260Z,101104.94
2023-05-09T20:41:03.525Z,101102.94
2023-05-09T20:43:30.629Z,101105.66
2023-05-09T20:45:57.477Z,101097.00
2023-05-09T20:48:24.258Z,101094.47
2023-05-09T20:50:50.891Z,101092.63
2023-05-09T20:53:17.637Z,101100.97
2023-05-09T20:55:44.335Z,101101.97
2023-05-09T20:58:14.759Z,101105.16
2023-05-09T21:00:41.503Z,101096.19
2023-05-09T21:03:10.182Z,101098.66
2023-05-09T21:05:36.944Z,101098.31
2023-05-09T21:08:03.718Z,101095.56
2023-05-09T21:10:30.451Z,101095.00
2023-05-09T21:12:57.731Z,101094.13
2023-05-09T21:15:25.511Z,101084.91
2023-05-09T21:17:52.204Z,101091.53
2023-05-09T21:20:19.044Z,101081.25
2023-05-09T21:22:46.122Z,101090.63
2023-05-09T21:25:13.006Z,101085.94
2023-05-09T21:27:39.684Z,101098.63
2023-05-09T21:30:07.160Z,101093.69
2023-05-09T21:32:33.862Z,101093.84
2023-05-09T21:35:02.074Z,101105.06
2023-05-09T21:37:28.999Z,101097.22
2023-05-09T21:39:55.761Z,101093.75
2023-05-09T21:42:23.995Z,101084.81
2023-05-09T21:44:50.742Z,101089.16
2023-05-09T21:47:17.467Z,101083.53
2023-05-09T21:49:44.223Z,101091.25
2023-05-09T21:52:10.859Z,101086.78
2023-05-09T21:54:37.565Z,101089.34
2023-05-09T21:57:04.488Z,101089.16
2023-05-09T21:59:31.251Z,101085.78
2023-05-09T22:01:58.071Z,101089.25
2023-05-09T22:04:24.757Z,101082.84
2023-05-09T22:06:56.118Z,101088.78
2023-05-09T22:09:23.505Z,101092.03
2023-05-09T22:11:50.245Z,101081.09
2023-05-09T22:14:16.920Z,101084.19
2023-05-09T22:16:43.803Z,101078.50
2023-05-09T22:19:10.588Z,101088.03
2023-05-09T22:21:37.447Z,101075.88
2023-05-09T22:24:04.437Z,101091.03
2023-05-09T22:26:31.149Z,101082.97
2023-05-09T22:28:57.803Z,101090.47
2023-05-09T22:31:24.552Z,101084.09
2023-05-09T22:33:51.321Z,101086.38
2023-05-09T22:36:19.035Z,101094.19
2023-05-09T22:38:45.704Z,101085.03
2023-05-09T22:41:12.349Z,101087.94
2023-05-09T22:43:39.851Z,101090.09
2023-05-09T22:46:07.753Z,101081.25
2023-05-09T22:48:34.576Z,101091.47
2023-05-09T22:51:01.271Z,101081.06
2023-05-09T22:53:28.213Z,101082.56
2023-05-09T22:55:54.952Z,101089.53
2023-05-09T22:58:22.549Z,101085.66
2023-05-09T23:00:49.288Z,101083.19
2023-05-09T23:03:16.468Z,101093.38
2023-05-09T23:05:43.493Z,101081.97
2023-05-09T23:08:10.323Z,101074.91
2023-05-09T23:10:37.002Z,101077.91
2023-05-09T23:13:04.816Z,101079.03
2023-05-09T23:15:31.588Z,101076.44
2023-05-09T23:17:58.433Z,101071.81
2023-05-09T23:20:26.009Z,101074.31
2023-05-09T23:22:52.720Z,101069.13
2023-05-09T23:25:19.469Z,101074.94
2023-05-09T23:27:46.923Z,101068.13
2023-05-09T23:30:15.165Z,101076.19
2023-05-09T23:32:43.017Z,101071.97
2023-05-09T23:35:10.399Z,101078.94
2023-05-09T23:37:39.889Z,101071.97
2023-05-09T23:40:07.271Z,101072.97
2023-05-09T23:42:34.263Z,101079.91
2023-05-09T23:45:04.456Z,101072.97
2023-05-09T23:47:31.326Z,101078.41
2023-05-09T23:49:58.154Z,101076.69
2023-05-09T23:52:24.809Z,101069.28
2023-05-09T23:54:51.504Z,101067.00
2023-05-09T23:57:18.154Z,101070.13
2023-05-09T23:59:45.056Z,101068.63
